sensor_id;sensor_type;location;lat;lon;timestamp;temperature;humidity
78289;DHT22;67539;48.752;12.922;2024-03-06T00:00:06;6.50;99.90
78289;DHT22;67539;48.752;12.922;2024-03-06T00:02:34;6.50;99.90
78289;DHT22;67539;48.752;12.922;2024-03-06T00:05:03;6.50;99.90
78289;DHT22;67539;48.752;12.922;2024-03-06T00:07:34;6.50;99.90
78289;DHT22;67539;48.752;12.922;2024-03-06T00:10:03;6.50;99.90
78289;DHT22;67539;48.752;12.922;2024-03-06T00:12:32;6.50;99.90
78289;DHT22;67539;48.752;12.922;2024-03-06T00:15:01;6.40;99.90
78289;DHT22;67539;48.752;12.922;2024-03-06T00:17:31;6.50;99.90
78289;DHT22;67539;48.752;12.922;2024-03-06T00:19:59;6.50;99.90
78289;DHT22;67539;48.752;12.922;2024-03-06T00:22:27;6.50;99.90
78289;DHT22;67539;48.752;12.922;2024-03-06T00:24:55;6.50;99.90
78289;DHT22;67539;48.752;12.922;2024-03-06T00:27:23;6.40;99.90
78289;DHT22;67539;48.752;12.922;2024-03-06T00:29:51;6.40;99.90
78289;DHT22;67539;48.752;12.922;2024-03-06T00:32:20;6.40;99.90
78289;DHT22;67539;48.752;12.922;2024-03-06T00:34:51;6.40;99.90
78289;DHT22;67539;48.752;12.922;2024-03-06T00:37:20;6.40;99.90
78289;DHT22;67539;48.752;12.922;2024-03-06T00:39:48;6.40;99.90
78289;DHT22;67539;48.752;12.922;2024-03-06T00:42:16;6.40;99.90
78289;DHT22;67539;48.752;12.922;2024-03-06T00:44:45;6.50;99.90
78289;DHT22;67539;48.752;12.922;2024-03-06T00:47:13;6.50;99.90
78289;DHT22;67539;48.752;12.922;2024-03-06T00:49:42;6.50;99.90
78289;DHT22;67539;48.752;12.922;2024-03-06T00:52:11;6.50;99.90
78289;DHT22;67539;48.752;12.922;2024-03-06T00:54:39;6.50;99.90
78289;DHT22;67539;48.752;12.922;2024-03-06T00:57:08;6.50;99.90
78289;DHT22;67539;48.752;12.922;2024-03-06T00:59:37;6.40;99.90
78289;DHT22;67539;48.752;12.922;2024-03-06T01:02:05;6.40;99.90
78289;DHT22;67539;48.752;12.922;2024-03-06T01:04:33;6.40;99.90
78289;DHT22;67539;48.752;12.922;2024-03-06T01:07:01;6.40;99.90
78289;DHT22;67539;48.752;12.922;2024-03-06T01:09:31;6.30;99.90
78289;DHT22;67539;48.752;12.922;2024-03-06T01:11:59;6.30;99.90
78289;DHT22;67539;48.752;12.922;2024-03-06T01:14:27;6.30;99.90
78289;DHT22;67539;48.752;12.922;2024-03-06T01:16:55;6.30;99.90
78289;DHT22;67539;48.752;12.922;2024-03-06T01:19:24;6.30;99.90
78289;DHT22;67539;48.752;12.922;2024-03-06T01:21:52;6.20;99.90
78289;DHT22;67539;48.752;12.922;2024-03-06T01:24:20;6.20;99.90
78289;DHT22;67539;48.752;12.922;2024-03-06T01:26:49;6.20;99.90
78289;DHT22;67539;48.752;12.922;2024-03-06T01:29:18;6.20;99.90
78289;DHT22;67539;48.752;12.922;2024-03-06T01:31:46;6.10;99.90
78289;DHT22;67539;48.752;12.922;2024-03-06T01:34:14;6.10;99.90
78289;DHT22;67539;48.752;12.922;2024-03-06T01:36:42;6.10;99.90
78289;DHT22;67539;48.752;12.922;2024-03-06T01:39:10;6.10;99.90
78289;DHT22;67539;48.752;12.922;2024-03-06T01:41:44;6.10;99.90
78289;DHT22;67539;48.752;12.922;2024-03-06T01:44:15;6.10;99.90
78289;DHT22;67539;48.752;12.922;2024-03-06T01:46:43;6.10;99.90
78289;DHT22;67539;48.752;12.922;2024-03-06T01:49:13;6.00;99.90
78289;DHT22;67539;48.752;12.922;2024-03-06T01:51:58;6.00;99.90
78289;DHT22;67539;48.752;12.922;2024-03-06T01:54:27;5.90;99.90
78289;DHT22;67539;48.752;12.922;2024-03-06T01:56:55;5.90;99.90
78289;DHT22;67539;48.752;12.922;2024-03-06T01:59:25;5.90;99.90
78289;DHT22;67539;48.752;12.922;2024-03-06T02:02:03;5.90;99.90
78289;DHT22;67539;48.752;12.922;2024-03-06T02:04:32;6.00;99.90
78289;DHT22;67539;48.752;12.922;2024-03-06T02:07:01;6.00;99.90
78289;DHT22;67539;48.752;12.922;2024-03-06T02:09:30;6.00;99.90
78289;DHT22;67539;48.752;12.922;2024-03-06T02:11:58;6.00;99.90
78289;DHT22;67539;48.752;12.922;2024-03-06T02:14:29;6.00;99.90
78289;DHT22;67539;48.752;12.922;2024-03-06T02:16:57;6.00;99.90
78289;DHT22;67539;48.752;12.922;2024-03-06T02:19:40;6.00;99.90
78289;DHT22;67539;48.752;12.922;2024-03-06T02:22:10;6.00;99.90
78289;DHT22;67539;48.752;12.922;2024-03-06T02:24:44;6.00;99.90
78289;DHT22;67539;48.752;12.922;2024-03-06T02:27:13;6.00;99.90
78289;DHT22;67539;48.752;12.922;2024-03-06T02:29:41;6.00;99.90
78289;DHT22;67539;48.752;12.922;2024-03-06T02:32:11;6.00;99.90
78289;DHT22;67539;48.752;12.922;2024-03-06T02:34:40;6.00;99.90
78289;DHT22;67539;48.752;12.922;2024-03-06T02:37:10;5.90;99.90
78289;DHT22;67539;48.752;12.922;2024-03-06T02:39:39;5.90;99.90
78289;DHT22;67539;48.752;12.922;2024-03-06T02:42:07;5.80;99.90
78289;DHT22;67539;48.752;12.922;2024-03-06T02:44:35;5.80;99.90
78289;DHT22;67539;48.752;12.922;2024-03-06T02:47:04;5.80;99.90
78289;DHT22;67539;48.752;12.922;2024-03-06T02:49:32;5.70;99.90
78289;DHT22;67539;48.752;12.922;2024-03-06T02:52:00;5.70;99.90
78289;DHT22;67539;48.752;12.922;2024-03-06T02:54:30;5.70;99.90
78289;DHT22;67539;48.752;12.922;2024-03-06T02:56:58;5.60;99.90
78289;DHT22;67539;48.752;12.922;2024-03-06T02:59:26;5.50;99.90
78289;DHT22;67539;48.752;12.922;2024-03-06T03:01:55;5.50;99.90
78289;DHT22;67539;48.752;12.922;2024-03-06T03:04:23;5.40;99.90
78289;DHT22;67539;48.752;12.922;2024-03-06T03:06:51;5.40;99.90
78289;DHT22;67539;48.752;12.922;2024-03-06T03:09:19;5.40;99.90
78289;DHT22;67539;48.752;12.922;2024-03-06T03:11:49;5.40;99.90
78289;DHT22;67539;48.752;12.922;2024-03-06T03:14:17;5.30;99.90
78289;DHT22;67539;48.752;12.922;2024-03-06T03:16:45;5.30;99.90
78289;DHT22;67539;48.752;12.922;2024-03-06T03:19:13;5.30;99.90
78289;DHT22;67539;48.752;12.922;2024-03-06T03:21:44;5.30;99.90
78289;DHT22;67539;48.752;12.922;2024-03-06T03:24:12;5.30;99.90
78289;DHT22;67539;48.752;12.922;2024-03-06T03:26:40;5.30;99.90
78289;DHT22;67539;48.752;12.922;2024-03-06T03:29:11;5.40;99.90
78289;DHT22;67539;48.752;12.922;2024-03-06T03:31:39;5.40;99.90
78289;DHT22;67539;48.752;12.922;2024-03-06T03:34:07;5.30;99.90
78289;DHT22;67539;48.752;12.922;2024-03-06T03:36:40;5.30;99.90
78289;DHT22;67539;48.752;12.922;2024-03-06T03:39:10;5.30;99.90
78289;DHT22;67539;48.752;12.922;2024-03-06T03:41:43;5.20;99.90
78289;DHT22;67539;48.752;12.922;2024-03-06T03:44:15;5.20;99.90
78289;DHT22;67539;48.752;12.922;2024-03-06T03:46:44;5.20;99.90
78289;DHT22;67539;48.752;12.922;2024-03-06T03:49:12;5.20;99.90
78289;DHT22;67539;48.752;12.922;2024-03-06T03:51:40;5.20;99.90
78289;DHT22;67539;48.752;12.922;2024-03-06T03:54:09;5.10;99.90
78289;DHT22;67539;48.752;12.922;2024-03-06T03:56:37;5.10;99.90
78289;DHT22;67539;48.752;12.922;2024-03-06T03:59:05;5.10;99.90
78289;DHT22;67539;48.752;12.922;2024-03-06T04:01:35;5.10;99.90
78289;DHT22;67539;48.752;12.922;2024-03-06T04:04:04;5.00;99.90
78289;DHT22;67539;48.752;12.922;2024-03-06T04:06:34;5.00;99.90
78289;DHT22;67539;48.752;12.922;2024-03-06T04:09:02;5.00;99.90
78289;DHT22;67539;48.752;12.922;2024-03-06T04:11:31;5.00;99.90
78289;DHT22;67539;48.752;12.922;2024-03-06T04:14:01;5.00;99.90
78289;DHT22;67539;48.752;12.922;2024-03-06T04:16:29;4.90;99.90
78289;DHT22;67539;48.752;12.922;2024-03-06T04:19:01;4.90;99.90
78289;DHT22;67539;48.752;12.922;2024-03-06T04:21:30;4.90;99.90
78289;DHT22;67539;48.752;12.922;2024-03-06T04:23:58;4.80;99.90
78289;DHT22;67539;48.752;12.922;2024-03-06T04:26:26;4.70;99.90
78289;DHT22;67539;48.752;12.922;2024-03-06T04:28:55;4.70;99.90
78289;DHT22;67539;48.752;12.922;2024-03-06T04:31:23;4.70;99.90
78289;DHT22;67539;48.752;12.922;2024-03-06T04:33:51;4.70;99.90
78289;DHT22;67539;48.752;12.922;2024-03-06T04:36:21;4.60;99.90
78289;DHT22;67539;48.752;12.922;2024-03-06T04:38:49;4.60;99.90
78289;DHT22;67539;48.752;12.922;2024-03-06T04:41:18;4.60;99.90
78289;DHT22;67539;48.752;12.922;2024-03-06T04:43:46;4.60;99.90
78289;DHT22;67539;48.752;12.922;2024-03-06T04:46:17;4.50;99.90
78289;DHT22;67539;48.752;12.922;2024-03-06T04:48:46;4.50;99.90
78289;DHT22;67539;48.752;12.922;2024-03-06T04:51:15;4.50;99.90
78289;DHT22;67539;48.752;12.922;2024-03-06T04:53:48;4.40;99.90
78289;DHT22;67539;48.752;12.922;2024-03-06T04:56:16;4.40;99.90
78289;DHT22;67539;48.752;12.922;2024-03-06T04:58:46;4.30;99.90
78289;DHT22;67539;48.752;12.922;2024-03-06T05:01:14;4.30;99.90
78289;DHT22;67539;48.752;12.922;2024-03-06T05:03:43;4.20;99.90
78289;DHT22;67539;48.752;12.922;2024-03-06T05:06:28;4.10;99.90
78289;DHT22;67539;48.752;12.922;2024-03-06T05:09:15;4.00;99.90
78289;DHT22;67539;48.752;12.922;2024-03-06T05:12:01;3.90;99.90
78289;DHT22;67539;48.752;12.922;2024-03-06T05:14:47;3.80;99.90
78289;DHT22;67539;48.752;12.922;2024-03-06T05:17:32;3.70;99.90
78289;DHT22;67539;48.752;12.922;2024-03-06T05:20:18;3.60;99.90
78289;DHT22;67539;48.752;12.922;2024-03-06T05:23:04;3.60;99.90
78289;DHT22;67539;48.752;12.922;2024-03-06T05:25:52;3.60;99.90
78289;DHT22;67539;48.752;12.922;2024-03-06T05:28:37;3.60;99.90
78289;DHT22;67539;48.752;12.922;2024-03-06T05:31:23;3.60;99.90
78289;DHT22;67539;48.752;12.922;2024-03-06T05:34:09;3.60;99.90
78289;DHT22;67539;48.752;12.922;2024-03-06T05:36:55;3.50;99.90
78289;DHT22;67539;48.752;12.922;2024-03-06T05:39:41;3.50;99.90
78289;DHT22;67539;48.752;12.922;2024-03-06T05:42:29;3.50;99.90
78289;DHT22;67539;48.752;12.922;2024-03-06T05:45:15;3.50;99.90
78289;DHT22;67539;48.752;12.922;2024-03-06T05:48:01;3.50;99.90
78289;DHT22;67539;48.752;12.922;2024-03-06T05:50:48;3.50;99.90
78289;DHT22;67539;48.752;12.922;2024-03-06T05:53:36;3.60;99.90
78289;DHT22;67539;48.752;12.922;2024-03-06T05:56:22;3.60;99.90
78289;DHT22;67539;48.752;12.922;2024-03-06T05:59:10;3.60;99.90
78289;DHT22;67539;48.752;12.922;2024-03-06T06:01:38;3.70;99.90
78289;DHT22;67539;48.752;12.922;2024-03-06T06:04:06;3.70;99.90
78289;DHT22;67539;48.752;12.922;2024-03-06T06:06:35;3.70;99.90
78289;DHT22;67539;48.752;12.922;2024-03-06T06:09:04;3.70;99.90
78289;DHT22;67539;48.752;12.922;2024-03-06T06:11:33;3.70;99.90
78289;DHT22;67539;48.752;12.922;2024-03-06T06:14:01;3.70;99.90
78289;DHT22;67539;48.752;12.922;2024-03-06T06:16:36;3.70;99.90
78289;DHT22;67539;48.752;12.922;2024-03-06T06:19:04;3.70;99.90
78289;DHT22;67539;48.752;12.922;2024-03-06T06:21:33;3.70;99.90
78289;DHT22;67539;48.752;12.922;2024-03-06T06:24:03;3.70;99.90
78289;DHT22;67539;48.752;12.922;2024-03-06T06:26:32;3.70;99.90
78289;DHT22;67539;48.752;12.922;2024-03-06T06:29:00;3.70;99.90
78289;DHT22;67539;48.752;12.922;2024-03-06T06:31:29;3.70;99.90
78289;DHT22;67539;48.752;12.922;2024-03-06T06:33:59;3.80;99.90
78289;DHT22;67539;48.752;12.922;2024-03-06T06:36:27;3.80;99.90
78289;DHT22;67539;48.752;12.922;2024-03-06T06:38:56;3.90;99.90
78289;DHT22;67539;48.752;12.922;2024-03-06T06:41:26;3.90;99.90
78289;DHT22;67539;48.752;12.922;2024-03-06T06:43:55;4.00;99.90
78289;DHT22;67539;48.752;12.922;2024-03-06T06:46:23;4.00;99.90
78289;DHT22;67539;48.752;12.922;2024-03-06T06:48:51;4.10;99.90
78289;DHT22;67539;48.752;12.922;2024-03-06T06:51:21;4.10;99.90
78289;DHT22;67539;48.752;12.922;2024-03-06T06:53:50;4.20;99.90
78289;DHT22;67539;48.752;12.922;2024-03-06T06:56:18;4.30;99.90
78289;DHT22;67539;48.752;12.922;2024-03-06T06:58:47;4.30;99.90
78289;DHT22;67539;48.752;12.922;2024-03-06T07:01:15;4.40;99.90
78289;DHT22;67539;48.752;12.922;2024-03-06T07:03:44;4.50;99.90
78289;DHT22;67539;48.752;12.922;2024-03-06T07:06:12;4.50;99.90
78289;DHT22;67539;48.752;12.922;2024-03-06T07:08:41;4.60;99.90
78289;DHT22;67539;48.752;12.922;2024-03-06T07:11:09;4.70;99.90
78289;DHT22;67539;48.752;12.922;2024-03-06T07:13:38;4.80;99.90
78289;DHT22;67539;48.752;12.922;2024-03-06T07:16:07;4.90;99.90
78289;DHT22;67539;48.752;12.922;2024-03-06T07:18:35;4.90;99.90
78289;DHT22;67539;48.752;12.922;2024-03-06T07:21:04;5.00;99.90
78289;DHT22;67539;48.752;12.922;2024-03-06T07:23:32;5.10;99.90
78289;DHT22;67539;48.752;12.922;2024-03-06T07:26:02;5.10;99.90
78289;DHT22;67539;48.752;12.922;2024-03-06T07:28:30;5.20;99.90
78289;DHT22;67539;48.752;12.922;2024-03-06T07:30:58;5.30;99.90
78289;DHT22;67539;48.752;12.922;2024-03-06T07:33:26;5.40;99.90
78289;DHT22;67539;48.752;12.922;2024-03-06T07:35:54;5.50;99.90
78289;DHT22;67539;48.752;12.922;2024-03-06T07:38:23;5.60;99.90
78289;DHT22;67539;48.752;12.922;2024-03-06T07:40:52;5.70;99.90
78289;DHT22;67539;48.752;12.922;2024-03-06T07:43:21;5.80;99.90
78289;DHT22;67539;48.752;12.922;2024-03-06T07:45:50;5.90;99.90
78289;DHT22;67539;48.752;12.922;2024-03-06T07:48:19;6.00;99.90
78289;DHT22;67539;48.752;12.922;2024-03-06T07:50:47;6.10;99.90
78289;DHT22;67539;48.752;12.922;2024-03-06T07:53:15;6.10;99.90
78289;DHT22;67539;48.752;12.922;2024-03-06T07:55:44;6.30;99.90
78289;DHT22;67539;48.752;12.922;2024-03-06T07:58:12;6.40;99.90
78289;DHT22;67539;48.752;12.922;2024-03-06T08:00:41;6.40;99.90
78289;DHT22;67539;48.752;12.922;2024-03-06T08:03:10;6.60;99.90
78289;DHT22;67539;48.752;12.922;2024-03-06T08:05:40;6.60;99.90
78289;DHT22;67539;48.752;12.922;2024-03-06T08:08:09;6.70;99.90
78289;DHT22;67539;48.752;12.922;2024-03-06T08:10:37;6.80;99.90
78289;DHT22;67539;48.752;12.922;2024-03-06T08:13:05;6.90;99.90
78289;DHT22;67539;48.752;12.922;2024-03-06T08:15:33;7.00;99.90
78289;DHT22;67539;48.752;12.922;2024-03-06T08:18:03;7.10;99.90
78289;DHT22;67539;48.752;12.922;2024-03-06T08:20:31;7.20;99.90
78289;DHT22;67539;48.752;12.922;2024-03-06T08:23:00;7.30;99.90
78289;DHT22;67539;48.752;12.922;2024-03-06T08:25:28;7.40;99.90
78289;DHT22;67539;48.752;12.922;2024-03-06T08:27:59;7.60;99.90
78289;DHT22;67539;48.752;12.922;2024-03-06T08:30:28;7.60;99.90
78289;DHT22;67539;48.752;12.922;2024-03-06T08:32:57;7.80;99.90
78289;DHT22;67539;48.752;12.922;2024-03-06T08:35:27;8.00;99.90
78289;DHT22;67539;48.752;12.922;2024-03-06T08:37:55;8.00;99.90
78289;DHT22;67539;48.752;12.922;2024-03-06T08:40:23;8.10;99.90
78289;DHT22;67539;48.752;12.922;2024-03-06T08:42:54;8.10;99.90
78289;DHT22;67539;48.752;12.922;2024-03-06T08:45:23;8.20;99.90
78289;DHT22;67539;48.752;12.922;2024-03-06T08:47:51;8.30;99.90
78289;DHT22;67539;48.752;12.922;2024-03-06T08:50:21;8.30;99.90
78289;DHT22;67539;48.752;12.922;2024-03-06T08:52:51;8.40;99.90
78289;DHT22;67539;48.752;12.922;2024-03-06T08:55:19;8.50;99.90
78289;DHT22;67539;48.752;12.922;2024-03-06T08:57:47;8.50;99.90
78289;DHT22;67539;48.752;12.922;2024-03-06T09:00:17;8.60;99.90
78289;DHT22;67539;48.752;12.922;2024-03-06T09:02:46;8.70;99.90
78289;DHT22;67539;48.752;12.922;2024-03-06T09:05:14;8.70;99.90
78289;DHT22;67539;48.752;12.922;2024-03-06T09:07:42;8.80;99.90
78289;DHT22;67539;48.752;12.922;2024-03-06T09:10:12;8.80;99.90
78289;DHT22;67539;48.752;12.922;2024-03-06T09:12:41;8.80;99.90
78289;DHT22;67539;48.752;12.922;2024-03-06T09:15:09;8.90;99.90
78289;DHT22;67539;48.752;12.922;2024-03-06T09:17:39;8.90;99.90
78289;DHT22;67539;48.752;12.922;2024-03-06T09:20:09;8.90;99.90
78289;DHT22;67539;48.752;12.922;2024-03-06T09:22:40;8.90;99.90
78289;DHT22;67539;48.752;12.922;2024-03-06T09:25:10;8.90;99.90
78289;DHT22;67539;48.752;12.922;2024-03-06T09:27:43;8.90;99.90
78289;DHT22;67539;48.752;12.922;2024-03-06T09:30:12;9.00;99.90
78289;DHT22;67539;48.752;12.922;2024-03-06T09:32:42;9.00;99.90
78289;DHT22;67539;48.752;12.922;2024-03-06T09:35:11;9.10;99.90
78289;DHT22;67539;48.752;12.922;2024-03-06T09:37:41;9.10;99.90
78289;DHT22;67539;48.752;12.922;2024-03-06T09:40:11;9.10;99.90
78289;DHT22;67539;48.752;12.922;2024-03-06T09:42:39;9.10;99.90
78289;DHT22;67539;48.752;12.922;2024-03-06T09:45:09;9.10;99.90
78289;DHT22;67539;48.752;12.922;2024-03-06T09:47:38;9.10;99.90
78289;DHT22;67539;48.752;12.922;2024-03-06T09:50:09;9.20;99.90
78289;DHT22;67539;48.752;12.922;2024-03-06T09:52:39;9.30;99.90
78289;DHT22;67539;48.752;12.922;2024-03-06T09:55:08;9.30;99.90
78289;DHT22;67539;48.752;12.922;2024-03-06T09:57:37;9.40;99.90
78289;DHT22;67539;48.752;12.922;2024-03-06T10:00:07;9.40;99.90
78289;DHT22;67539;48.752;12.922;2024-03-06T10:02:41;9.50;99.90
78289;DHT22;67539;48.752;12.922;2024-03-06T10:05:21;9.50;99.90
78289;DHT22;67539;48.752;12.922;2024-03-06T10:07:50;9.60;99.90
78289;DHT22;67539;48.752;12.922;2024-03-06T10:10:20;9.50;99.90
78289;DHT22;67539;48.752;12.922;2024-03-06T10:12:50;9.60;99.90
78289;DHT22;67539;48.752;12.922;2024-03-06T10:15:18;9.60;99.90
78289;DHT22;67539;48.752;12.922;2024-03-06T10:17:50;9.60;99.90
78289;DHT22;67539;48.752;12.922;2024-03-06T10:20:19;9.60;99.90
78289;DHT22;67539;48.752;12.922;2024-03-06T10:22:49;9.60;99.90
78289;DHT22;67539;48.752;12.922;2024-03-06T10:25:24;9.60;99.90
78289;DHT22;67539;48.752;12.922;2024-03-06T10:28:06;9.60;99.90
78289;DHT22;67539;48.752;12.922;2024-03-06T10:30:37;9.60;99.90
78289;DHT22;67539;48.752;12.922;2024-03-06T10:33:11;9.60;99.90
78289;DHT22;67539;48.752;12.922;2024-03-06T10:35:41;9.70;99.90
78289;DHT22;67539;48.752;12.922;2024-03-06T10:38:10;9.70;99.90
78289;DHT22;67539;48.752;12.922;2024-03-06T10:40:40;9.80;99.90
78289;DHT22;67539;48.752;12.922;2024-03-06T10:43:09;9.90;99.90
78289;DHT22;67539;48.752;12.922;2024-03-06T10:45:41;9.90;99.90
78289;DHT22;67539;48.752;12.922;2024-03-06T10:48:15;9.90;99.90
78289;DHT22;67539;48.752;12.922;2024-03-06T10:50:45;9.90;99.90
78289;DHT22;67539;48.752;12.922;2024-03-06T10:53:15;10.00;99.90
78289;DHT22;67539;48.752;12.922;2024-03-06T10:55:50;10.10;99.90
78289;DHT22;67539;48.752;12.922;2024-03-06T10:58:20;10.20;99.90
78289;DHT22;67539;48.752;12.922;2024-03-06T11:00:48;10.40;99.90
78289;DHT22;67539;48.752;12.922;2024-03-06T11:03:17;10.50;99.90
78289;DHT22;67539;48.752;12.922;2024-03-06T11:05:46;10.60;99.90
78289;DHT22;67539;48.752;12.922;2024-03-06T11:08:19;10.70;99.90
78289;DHT22;67539;48.752;12.922;2024-03-06T11:10:48;10.80;99.90
78289;DHT22;67539;48.752;12.922;2024-03-06T11:13:23;11.00;99.90
78289;DHT22;67539;48.752;12.922;2024-03-06T11:15:57;11.10;99.90
78289;DHT22;67539;48.752;12.922;2024-03-06T11:18:43;11.40;99.90
78289;DHT22;67539;48.752;12.922;2024-03-06T11:21:31;11.50;99.90
78289;DHT22;67539;48.752;12.922;2024-03-06T11:24:13;11.60;99.90
78289;DHT22;67539;48.752;12.922;2024-03-06T11:27:03;11.70;99.90
78289;DHT22;67539;48.752;12.922;2024-03-06T11:30:04;11.80;99.90
78289;DHT22;67539;48.752;12.922;2024-03-06T11:32:37;11.90;99.90
78289;DHT22;67539;48.752;12.922;2024-03-06T11:35:07;12.00;99.90
78289;DHT22;67539;48.752;12.922;2024-03-06T11:37:45;12.00;99.90
78289;DHT22;67539;48.752;12.922;2024-03-06T11:40:14;12.10;99.90
78289;DHT22;67539;48.752;12.922;2024-03-06T11:42:42;12.10;99.90
78289;DHT22;67539;48.752;12.922;2024-03-06T11:45:16;12.20;99.90
78289;DHT22;67539;48.752;12.922;2024-03-06T11:48:10;12.20;99.90
78289;DHT22;67539;48.752;12.922;2024-03-06T11:50:45;12.30;99.90
78289;DHT22;67539;48.752;12.922;2024-03-06T11:53:14;12.30;99.90
78289;DHT22;67539;48.752;12.922;2024-03-06T11:55:44;12.30;99.90
78289;DHT22;67539;48.752;12.922;2024-03-06T11:58:12;12.40;99.90
78289;DHT22;67539;48.752;12.922;2024-03-06T12:00:40;12.50;99.90
78289;DHT22;67539;48.752;12.922;2024-03-06T12:03:12;12.50;99.90
78289;DHT22;67539;48.752;12.922;2024-03-06T12:05:40;12.50;99.90
78289;DHT22;67539;48.752;12.922;2024-03-06T12:08:11;12.50;99.90
78289;DHT22;67539;48.752;12.922;2024-03-06T12:10:39;12.50;99.90
78289;DHT22;67539;48.752;12.922;2024-03-06T12:13:08;12.30;99.90
78289;DHT22;67539;48.752;12.922;2024-03-06T12:15:36;12.40;99.90
78289;DHT22;67539;48.752;12.922;2024-03-06T12:18:04;12.50;99.90
78289;DHT22;67539;48.752;12.922;2024-03-06T12:20:33;12.60;99.90
78289;DHT22;67539;48.752;12.922;2024-03-06T12:23:03;12.60;99.90
78289;DHT22;67539;48.752;12.922;2024-03-06T12:25:32;12.70;99.90
78289;DHT22;67539;48.752;12.922;2024-03-06T12:28:07;12.80;99.90
78289;DHT22;67539;48.752;12.922;2024-03-06T12:30:41;12.80;99.90
78289;DHT22;67539;48.752;12.922;2024-03-06T12:33:16;12.90;99.90
78289;DHT22;67539;48.752;12.922;2024-03-06T12:35:45;12.90;99.90
78289;DHT22;67539;48.752;12.922;2024-03-06T12:38:13;12.90;99.90
78289;DHT22;67539;48.752;12.922;2024-03-06T12:40:43;12.80;99.90
78289;DHT22;67539;48.752;12.922;2024-03-06T12:43:11;12.80;99.90
78289;DHT22;67539;48.752;12.922;2024-03-06T12:45:39;12.90;99.90
78289;DHT22;67539;48.752;12.922;2024-03-06T12:48:07;12.90;99.90
78289;DHT22;67539;48.752;12.922;2024-03-06T12:50:36;12.80;99.80
78289;DHT22;67539;48.752;12.922;2024-03-06T12:53:04;12.70;99.90
78289;DHT22;67539;48.752;12.922;2024-03-06T12:55:32;12.60;99.90
78289;DHT22;67539;48.752;12.922;2024-03-06T12:58:02;12.80;99.90
78289;DHT22;67539;48.752;12.922;2024-03-06T13:00:30;12.90;99.90
78289;DHT22;67539;48.752;12.922;2024-03-06T13:02:58;13.00;99.70
78289;DHT22;67539;48.752;12.922;2024-03-06T13:05:26;13.10;99.60
78289;DHT22;67539;48.752;12.922;2024-03-06T13:07:54;13.10;98.60
78289;DHT22;67539;48.752;12.922;2024-03-06T13:10:23;13.00;98.40
78289;DHT22;67539;48.752;12.922;2024-03-06T13:12:51;13.10;98.20
78289;DHT22;67539;48.752;12.922;2024-03-06T13:15:20;13.10;97.90
78289;DHT22;67539;48.752;12.922;2024-03-06T13:17:49;13.30;99.10
78289;DHT22;67539;48.752;12.922;2024-03-06T13:20:17;13.40;99.50
78289;DHT22;67539;48.752;12.922;2024-03-06T13:22:46;13.50;99.70
78289;DHT22;67539;48.752;12.922;2024-03-06T13:25:14;13.70;99.80
78289;DHT22;67539;48.752;12.922;2024-03-06T13:27:42;13.80;98.10
78289;DHT22;67539;48.752;12.922;2024-03-06T13:30:11;14.00;98.00
78289;DHT22;67539;48.752;12.922;2024-03-06T13:32:41;14.00;96.60
78289;DHT22;67539;48.752;12.922;2024-03-06T13:35:12;14.10;97.60
78289;DHT22;67539;48.752;12.922;2024-03-06T13:37:41;14.20;97.80
78289;DHT22;67539;48.752;12.922;2024-03-06T13:40:11;14.20;98.20
78289;DHT22;67539;48.752;12.922;2024-03-06T13:42:40;14.10;97.60
78289;DHT22;67539;48.752;12.922;2024-03-06T13:45:09;14.00;96.70
78289;DHT22;67539;48.752;12.922;2024-03-06T13:47:40;13.90;95.70
78289;DHT22;67539;48.752;12.922;2024-03-06T13:50:10;13.80;96.90
78289;DHT22;67539;48.752;12.922;2024-03-06T13:52:39;13.80;96.40
78289;DHT22;67539;48.752;12.922;2024-03-06T13:55:08;13.70;97.40
78289;DHT22;67539;48.752;12.922;2024-03-06T13:57:37;13.70;98.10
78289;DHT22;67539;48.752;12.922;2024-03-06T14:00:07;13.80;98.40
78289;DHT22;67539;48.752;12.922;2024-03-06T14:02:40;13.70;98.90
78289;DHT22;67539;48.752;12.922;2024-03-06T14:05:09;13.80;98.80
78289;DHT22;67539;48.752;12.922;2024-03-06T14:07:38;13.70;98.70
78289;DHT22;67539;48.752;12.922;2024-03-06T14:10:07;13.70;98.90
78289;DHT22;67539;48.752;12.922;2024-03-06T14:12:36;13.70;99.20
78289;DHT22;67539;48.752;12.922;2024-03-06T14:15:05;13.60;98.90
78289;DHT22;67539;48.752;12.922;2024-03-06T14:17:41;13.60;98.50
78289;DHT22;67539;48.752;12.922;2024-03-06T14:20:10;13.60;99.30
78289;DHT22;67539;48.752;12.922;2024-03-06T14:22:39;13.50;97.80
78289;DHT22;67539;48.752;12.922;2024-03-06T14:25:08;13.30;97.60
78289;DHT22;67539;48.752;12.922;2024-03-06T14:27:37;13.20;97.60
78289;DHT22;67539;48.752;12.922;2024-03-06T14:30:07;13.20;98.20
78289;DHT22;67539;48.752;12.922;2024-03-06T14:32:35;13.10;98.70
78289;DHT22;67539;48.752;12.922;2024-03-06T14:35:06;13.10;99.10
78289;DHT22;67539;48.752;12.922;2024-03-06T14:37:35;13.10;99.50
78289;DHT22;67539;48.752;12.922;2024-03-06T14:40:04;13.00;99.90
78289;DHT22;67539;48.752;12.922;2024-03-06T14:42:35;13.00;99.90
78289;DHT22;67539;48.752;12.922;2024-03-06T14:45:04;13.00;99.90
78289;DHT22;67539;48.752;12.922;2024-03-06T14:47:33;13.00;99.90
78289;DHT22;67539;48.752;12.922;2024-03-06T14:50:05;13.00;99.40
78289;DHT22;67539;48.752;12.922;2024-03-06T14:52:33;12.90;99.40
78289;DHT22;67539;48.752;12.922;2024-03-06T14:55:02;12.90;99.80
78289;DHT22;67539;48.752;12.922;2024-03-06T14:57:31;12.80;99.90
78289;DHT22;67539;48.752;12.922;2024-03-06T14:59:59;12.70;98.40
78289;DHT22;67539;48.752;12.922;2024-03-06T15:04:57;12.40;98.70
78289;DHT22;67539;48.752;12.922;2024-03-06T15:07:27;12.30;97.90
78289;DHT22;67539;48.752;12.922;2024-03-06T15:09:55;12.20;98.50
78289;DHT22;67539;48.752;12.922;2024-03-06T15:12:24;12.20;98.00
78289;DHT22;67539;48.752;12.922;2024-03-06T15:14:53;12.10;97.80
78289;DHT22;67539;48.752;12.922;2024-03-06T15:17:24;12.00;97.00
78289;DHT22;67539;48.752;12.922;2024-03-06T15:19:53;11.80;97.20
78289;DHT22;67539;48.752;12.922;2024-03-06T15:22:22;11.70;97.50
78289;DHT22;67539;48.752;12.922;2024-03-06T15:24:51;11.70;97.90
78289;DHT22;67539;48.752;12.922;2024-03-06T15:27:21;11.60;97.70
78289;DHT22;67539;48.752;12.922;2024-03-06T15:29:49;11.60;97.80
78289;DHT22;67539;48.752;12.922;2024-03-06T15:32:18;11.60;97.50
78289;DHT22;67539;48.752;12.922;2024-03-06T15:34:46;11.60;97.40
78289;DHT22;67539;48.752;12.922;2024-03-06T15:37:14;11.60;98.00
78289;DHT22;67539;48.752;12.922;2024-03-06T15:39:42;11.60;98.20
78289;DHT22;67539;48.752;12.922;2024-03-06T15:42:12;11.50;99.00
78289;DHT22;67539;48.752;12.922;2024-03-06T15:44:40;11.50;99.90
78289;DHT22;67539;48.752;12.922;2024-03-06T15:47:09;11.50;99.90